createdAt,value
2019-02-19T00:01:01.589Z,31.50
2019-02-19T00:04:06.855Z,26.00
2019-02-19T00:07:12.076Z,28.13
2019-02-19T00:10:17.301Z,29.63
2019-02-19T00:13:22.460Z,28.63
2019-02-19T00:16:27.663Z,28.70
2019-02-19T00:19:32.840Z,26.83
2019-02-19T00:22:38.027Z,26.87
2019-02-19T00:25:43.106Z,29.33
2019-02-19T00:28:48.231Z,30.27
2019-02-19T00:31:53.425Z,31.90
2019-02-19T00:34:58.628Z,29.23
2019-02-19T00:38:03.814Z,28.23
2019-02-19T00:41:08.961Z,26.70
2019-02-19T00:44:14.111Z,28.30
2019-02-19T00:47:19.287Z,29.23
2019-02-19T00:50:24.603Z,25.53
2019-02-19T00:53:29.773Z,26.03
2019-02-19T00:56:34.960Z,27.53
2019-02-19T00:59:40.124Z,27.43
2019-02-19T01:02:45.350Z,25.30
2019-02-19T01:05:50.538Z,26.77
2019-02-19T01:08:55.659Z,26.03
2019-02-19T01:12:00.773Z,23.40
2019-02-19T01:15:07.656Z,19.73
2019-02-19T01:18:12.858Z,25.07
2019-02-19T01:21:18.002Z,27.47
2019-02-19T01:24:23.166Z,25.33
2019-02-19T01:27:28.361Z,24.60
2019-02-19T01:30:33.545Z,25.87
2019-02-19T01:33:38.654Z,29.90
2019-02-19T01:36:43.819Z,31.33
2019-02-19T01:39:49.133Z,34.17
2019-02-19T01:42:54.401Z,32.07
2019-02-19T01:45:59.538Z,35.87
2019-02-19T01:49:04.644Z,30.03
2019-02-19T01:52:10.006Z,34.00
2019-02-19T01:55:15.164Z,69.57
2019-02-19T01:58:20.317Z,36.33
2019-02-19T02:01:25.433Z,31.37
2019-02-19T02:04:30.555Z,90.90
2019-02-19T02:07:35.665Z,162.03
2019-02-19T02:10:40.877Z,56.10
2019-02-19T02:13:46.009Z,200.03
2019-02-19T02:16:51.215Z,97.77
2019-02-19T02:19:56.368Z,160.17
2019-02-19T02:23:01.570Z,136.27
2019-02-19T02:26:06.757Z,132.13
2019-02-19T02:29:11.956Z,128.43
2019-02-19T02:32:17.161Z,80.27
2019-02-19T02:35:22.355Z,131.17
2019-02-19T02:38:27.516Z,110.27
2019-02-19T02:41:32.690Z,117.60
2019-02-19T02:44:37.854Z,145.23
2019-02-19T02:47:42.990Z,98.83
2019-02-19T02:50:48.173Z,51.37
2019-02-19T02:53:53.452Z,127.80
2019-02-19T02:56:58.594Z,115.03
2019-02-19T03:00:03.800Z,164.70
2019-02-19T03:03:09.624Z,111.57
2019-02-19T03:06:23.634Z,76.90
2019-02-19T03:09:28.777Z,146.27
2019-02-19T03:12:33.985Z,100.03
2019-02-19T03:15:39.162Z,131.97
2019-02-19T03:18:44.371Z,93.23
2019-02-19T03:21:49.504Z,209.63
2019-02-19T03:24:54.697Z,84.57
2019-02-19T03:27:59.851Z,41.93
2019-02-19T03:31:05.093Z,55.80
2019-02-19T03:34:10.255Z,121.40
2019-02-19T03:37:15.394Z,200.97
2019-02-19T03:40:20.503Z,143.37
2019-02-19T03:43:25.781Z,255.70
2019-02-19T03:46:30.944Z,248.73
2019-02-19T03:49:36.106Z,258.13
2019-02-19T03:52:41.270Z,221.23
2019-02-19T03:55:46.421Z,273.73
2019-02-19T03:58:51.620Z,238.00
2019-02-19T04:01:56.825Z,215.60
2019-02-19T04:05:01.981Z,138.70
2019-02-19T04:08:07.281Z,134.53
2019-02-19T04:11:12.382Z,158.63
2019-02-19T04:14:17.524Z,108.43
2019-02-19T04:17:22.725Z,180.87
2019-02-19T04:20:28.011Z,162.27
2019-02-19T04:23:33.158Z,149.87
2019-02-19T04:26:38.559Z,134.23
2019-02-19T04:29:43.762Z,110.73
2019-02-19T04:32:48.980Z,97.33
2019-02-19T04:35:54.099Z,99.57
2019-02-19T04:38:59.462Z,112.77
2019-02-19T04:42:04.569Z,59.93
2019-02-19T04:45:09.887Z,103.77
2019-02-19T04:48:15.074Z,102.27
2019-02-19T04:51:20.253Z,81.53
2019-02-19T04:54:25.456Z,71.00
2019-02-19T04:57:30.635Z,56.53
2019-02-19T05:00:35.797Z,51.40
2019-02-19T05:03:40.980Z,54.43
2019-02-19T05:06:46.166Z,106.33
2019-02-19T05:09:51.309Z,97.87
2019-02-19T05:12:56.482Z,64.67
2019-02-19T05:16:01.634Z,87.90
2019-02-19T05:19:07.872Z,58.40
2019-02-19T05:22:13.056Z,127.83
2019-02-19T05:25:18.202Z,78.87
2019-02-19T05:28:23.384Z,88.00
2019-02-19T05:31:28.525Z,121.73
2019-02-19T05:34:33.704Z,80.63
2019-02-19T05:37:38.869Z,83.87
2019-02-19T05:40:44.019Z,121.90
2019-02-19T05:43:49.148Z,71.17
2019-02-19T05:46:54.271Z,126.20
2019-02-19T05:49:59.453Z,104.17
2019-02-19T05:53:04.738Z,87.90
2019-02-19T05:56:09.881Z,80.57
2019-02-19T05:59:15.078Z,131.63
2019-02-19T06:02:20.336Z,117.23
2019-02-19T06:05:25.469Z,82.23
2019-02-19T06:08:30.644Z,90.10
2019-02-19T06:11:35.816Z,69.60
2019-02-19T06:14:41.205Z,87.77
2019-02-19T06:17:46.419Z,75.80
2019-02-19T06:20:51.619Z,75.27
2019-02-19T06:23:56.720Z,44.30
2019-02-19T06:27:01.921Z,106.27
2019-02-19T06:30:10.915Z,64.30
2019-02-19T06:33:16.000Z,73.57
2019-02-19T06:36:21.124Z,64.40
2019-02-19T06:39:26.290Z,80.03
2019-02-19T06:42:31.445Z,69.27
2019-02-19T06:45:36.629Z,42.37
2019-02-19T06:48:41.791Z,52.73
2019-02-19T06:51:46.987Z,77.57
2019-02-19T06:54:52.161Z,48.50
2019-02-19T06:57:57.381Z,105.43
2019-02-19T07:01:02.501Z,105.50
2019-02-19T07:04:14.422Z,94.33
2019-02-19T07:07:20.900Z,87.90
2019-02-19T07:10:26.306Z,99.00
2019-02-19T07:13:31.656Z,49.90
2019-02-19T07:16:36.781Z,58.80
2019-02-19T07:19:41.930Z,47.10
2019-02-19T07:22:47.081Z,49.80
2019-02-19T07:25:52.266Z,53.77
2019-02-19T07:28:57.443Z,37.73
2019-02-19T07:32:02.578Z,59.63
2019-02-19T07:35:07.814Z,50.57
2019-02-19T07:38:12.912Z,37.30
2019-02-19T07:41:18.091Z,31.10
2019-02-19T07:44:23.235Z,29.70
2019-02-19T07:47:28.412Z,31.63
2019-02-19T07:50:33.691Z,26.23
2019-02-19T07:53:38.826Z,24.63
2019-02-19T07:56:44.185Z,28.47
2019-02-19T07:59:49.353Z,28.97
2019-02-19T08:02:54.496Z,26.57
2019-02-19T08:05:59.635Z,28.77
2019-02-19T08:09:06.652Z,25.97
2019-02-19T08:12:12.066Z,29.20
2019-02-19T08:15:17.186Z,29.07
2019-02-19T08:18:22.416Z,38.47
2019-02-19T08:21:27.602Z,38.10
2019-02-19T08:24:32.776Z,28.20
2019-02-19T08:27:37.905Z,25.27
2019-02-19T08:30:43.031Z,29.20
2019-02-19T08:33:48.212Z,28.57
2019-02-19T08:36:53.356Z,29.23
2019-02-19T08:39:58.534Z,25.07
2019-02-19T08:43:04.005Z,29.33
2019-02-19T08:46:09.142Z,25.83
2019-02-19T08:49:14.400Z,27.97
2019-02-19T08:52:19.585Z,27.33
2019-02-19T08:55:24.800Z,24.77
2019-02-19T08:58:30.086Z,27.13
2019-02-19T09:01:35.251Z,27.57
2019-02-19T09:04:40.390Z,26.87
2019-02-19T09:07:45.577Z,26.40
2019-02-19T09:10:50.860Z,21.33
2019-02-19T09:13:56.033Z,29.00
2019-02-19T09:17:01.179Z,25.97
2019-02-19T09:20:07.137Z,30.80
2019-02-19T09:23:12.342Z,29.37
2019-02-19T09:26:17.542Z,27.40
2019-02-19T09:29:22.710Z,25.73
2019-02-19T09:32:27.859Z,27.73
2019-02-19T09:35:32.982Z,24.00
2019-02-19T09:38:38.237Z,22.67
2019-02-19T09:41:43.384Z,23.47
2019-02-19T09:44:48.542Z,21.60
2019-02-19T09:48:01.044Z,22.33
2019-02-19T09:51:00.655Z,21.67
2019-02-19T09:54:05.763Z,22.47
2019-02-19T09:57:10.946Z,19.53
2019-02-19T10:00:16.220Z,18.27
2019-02-19T10:03:21.468Z,22.67
2019-02-19T10:06:30.272Z,22.30
2019-02-19T10:09:37.036Z,19.73
2019-02-19T10:12:42.232Z,20.17
2019-02-19T10:15:47.400Z,22.20
2019-02-19T10:18:52.481Z,22.07
2019-02-19T10:21:57.644Z,21.47
2019-02-19T10:25:02.800Z,23.43
2019-02-19T10:28:07.993Z,26.10
2019-02-19T10:31:13.136Z,21.87
2019-02-19T10:34:18.259Z,28.47
2019-02-19T10:37:23.472Z,23.93
2019-02-19T10:40:28.692Z,30.73
2019-02-19T10:43:33.843Z,23.97
2019-02-19T10:46:39.031Z,23.37
2019-02-19T10:49:44.314Z,25.37
2019-02-19T10:52:49.467Z,25.67
2019-02-19T10:55:55.688Z,32.40
2019-02-19T10:59:00.845Z,31.37
2019-02-19T11:02:05.985Z,36.20
2019-02-19T11:05:11.169Z,28.73
2019-02-19T11:08:16.293Z,31.03
2019-02-19T11:11:21.460Z,29.97
2019-02-19T11:14:26.596Z,48.63
2019-02-19T11:17:31.762Z,46.53
2019-02-19T11:20:36.920Z,34.93
2019-02-19T11:23:42.098Z,31.93
2019-02-19T11:26:47.434Z,30.60
2019-02-19T11:29:52.575Z,35.77
2019-02-19T11:32:57.761Z,38.07
2019-02-19T11:36:02.981Z,62.17
2019-02-19T11:39:12.014Z,78.17
2019-02-19T11:42:17.180Z,76.53
2019-02-19T11:45:22.340Z,60.67
2019-02-19T11:48:27.514Z,50.13
2019-02-19T11:51:32.677Z,47.97
2019-02-19T11:54:37.896Z,43.20
2019-02-19T11:57:43.042Z,21.27
2019-02-19T12:00:48.201Z,21.23
2019-02-19T12:03:54.592Z,25.47
2019-02-19T12:06:59.738Z,21.00
2019-02-19T12:10:05.005Z,23.57
2019-02-19T12:13:10.206Z,21.33
2019-02-19T12:16:15.451Z,18.63
2019-02-19T12:19:20.589Z,20.37
2019-02-19T12:22:25.765Z,20.50
2019-02-19T12:25:30.896Z,23.30
2019-02-19T12:28:36.141Z,21.90
2019-02-19T12:31:41.316Z,19.83
2019-02-19T12:34:48.443Z,20.97
2019-02-19T12:37:55.263Z,19.47
2019-02-19T12:41:00.449Z,22.87
2019-02-19T12:44:05.600Z,18.83
2019-02-19T12:47:10.717Z,20.40
2019-02-19T12:50:15.928Z,21.33
2019-02-19T12:53:21.101Z,17.53
2019-02-19T12:56:26.225Z,18.20
2019-02-19T12:59:31.721Z,17.60
2019-02-19T13:02:36.812Z,16.30
2019-02-19T13:05:42.089Z,14.50
2019-02-19T13:08:47.139Z,14.27
2019-02-19T13:11:52.353Z,10.10
2019-02-19T13:14:57.572Z,22.03
2019-02-19T13:18:02.774Z,14.37
2019-02-19T13:21:07.898Z,13.20
2019-02-19T13:24:13.111Z,9.17
2019-02-19T13:27:18.221Z,8.40
2019-02-19T13:30:23.376Z,10.20
2019-02-19T13:33:28.547Z,11.57
2019-02-19T13:36:33.660Z,5.67
2019-02-19T13:39:38.809Z,8.77
2019-02-19T13:42:43.924Z,5.53
2019-02-19T13:45:49.183Z,4.30
2019-02-19T13:48:54.353Z,5.17
2019-02-19T13:52:05.472Z,6.53
2019-02-19T13:55:17.597Z,5.10
2019-02-19T13:58:22.747Z,4.03
2019-02-19T14:01:27.934Z,3.80
2019-02-19T14:04:33.093Z,3.37
2019-02-19T14:07:38.211Z,3.03
2019-02-19T14:10:43.403Z,3.27
2019-02-19T14:14:10.300Z,5.90
2019-02-19T14:17:17.785Z,5.70
2019-02-19T14:20:41.886Z,5.40
2019-02-19T14:24:04.847Z,4.27
2019-02-19T14:27:34.839Z,4.03
2019-02-19T14:31:14.482Z,5.23
2019-02-19T14:34:47.131Z,4.40
2019-02-19T14:38:09.990Z,5.40
2019-02-19T14:41:34.701Z,5.53
2019-02-19T14:44:58.859Z,5.53
2019-02-19T14:48:23.102Z,4.80
2019-02-19T14:51:45.396Z,3.97
2019-02-19T14:55:01.808Z,6.47
2019-02-19T14:58:24.505Z,5.03
2019-02-19T15:01:47.506Z,4.57
2019-02-19T15:05:06.875Z,5.03
2019-02-19T15:08:34.052Z,3.27
2019-02-19T15:11:58.210Z,4.47
2019-02-19T15:15:22.279Z,7.47
2019-02-19T15:18:48.367Z,3.27
2019-02-19T15:22:15.525Z,2.97
2019-02-19T15:25:42.445Z,4.33
2019-02-19T15:29:01.715Z,5.00
2019-02-19T15:32:25.862Z,7.13
2019-02-19T15:35:41.969Z,3.10
2019-02-19T15:39:24.327Z,4.23
2019-02-19T15:42:47.045Z,4.57
2019-02-19T15:46:11.211Z,3.70
2019-02-19T15:49:47.584Z,3.00
2019-02-19T15:53:07.194Z,5.03
2019-02-19T15:56:24.726Z,5.13
2019-02-19T15:59:46.600Z,5.73
2019-02-19T16:03:11.733Z,2.90
2019-02-19T16:06:23.497Z,3.83
2019-02-19T16:09:53.397Z,5.97
2019-02-19T16:13:26.795Z,5.53
2019-02-19T16:17:00.820Z,3.93
2019-02-19T16:20:32.330Z,3.57
2019-02-19T16:24:01.014Z,4.80
2019-02-19T16:27:26.393Z,3.47
2019-02-19T16:31:05.922Z,3.70
2019-02-19T16:34:19.994Z,4.97
2019-02-19T16:37:47.842Z,3.13
2019-02-19T16:41:09.501Z,4.07
2019-02-19T16:44:46.012Z,5.87
2019-02-19T16:48:09.086Z,6.17
2019-02-19T16:51:45.443Z,3.87
2019-02-19T16:55:27.843Z,3.93
2019-02-19T16:58:50.624Z,4.93
2019-02-19T17:02:10.577Z,4.73
2019-02-19T17:05:28.296Z,5.33
2019-02-19T17:08:50.547Z,6.37
2019-02-19T17:12:09.047Z,7.70
2019-02-19T17:15:32.294Z,8.27
2019-02-19T17:18:53.379Z,8.57
2019-02-19T17:22:23.520Z,7.73
2019-02-19T17:25:40.101Z,7.73
2019-02-19T17:29:01.035Z,5.47
2019-02-19T17:32:34.206Z,20.50
2019-02-19T17:35:49.995Z,18.30
2019-02-19T17:39:03.951Z,11.73
2019-02-19T17:42:29.117Z,18.15
2019-02-19T17:45:52.198Z,12.30
2019-02-19T17:49:19.497Z,44.40
2019-02-19T17:52:36.646Z,10.03
2019-02-19T17:55:58.416Z,31.43
2019-02-19T17:59:15.077Z,19.60
2019-02-19T18:02:30.016Z,14.37
2019-02-19T18:06:05.982Z,28.77
2019-02-19T18:09:18.628Z,77.73
2019-02-19T18:12:38.290Z,34.67
2019-02-19T18:16:01.486Z,16.60
2019-02-19T18:19:06.736Z,13.90
2019-02-19T18:22:12.071Z,21.83
2019-02-19T18:25:17.307Z,15.53
2019-02-19T18:28:22.464Z,12.73
2019-02-19T18:31:27.683Z,15.20
2019-02-19T18:34:32.984Z,14.67
2019-02-19T18:37:38.209Z,13.97
2019-02-19T18:40:43.320Z,9.90
2019-02-19T18:43:48.584Z,16.70
2019-02-19T18:46:53.813Z,18.97
2019-02-19T18:49:59.051Z,15.20
2019-02-19T18:53:04.194Z,28.47
2019-02-19T18:56:09.423Z,24.83
2019-02-19T18:59:14.622Z,17.70
2019-02-19T19:02:19.809Z,14.27
2019-02-19T19:05:25.025Z,19.57
2019-02-19T19:08:30.716Z,25.83
2019-02-19T19:11:35.910Z,26.17
2019-02-19T19:14:41.079Z,20.97
2019-02-19T19:17:46.339Z,25.63
2019-02-19T19:20:51.610Z,21.53
2019-02-19T19:23:56.754Z,20.33
2019-02-19T19:27:01.927Z,22.97
2019-02-19T19:30:08.219Z,21.13
2019-02-19T19:33:13.462Z,18.63
2019-02-19T19:36:18.609Z,19.63
2019-02-19T19:39:23.786Z,17.20
2019-02-19T19:42:28.935Z,19.23
2019-02-19T19:45:34.213Z,23.33
2019-02-19T19:48:39.401Z,21.03
2019-02-19T19:51:44.636Z,30.83
2019-02-19T19:54:49.890Z,26.47
2019-02-19T19:57:55.056Z,20.00
2019-02-19T20:01:00.804Z,21.93
2019-02-19T20:04:06.726Z,22.23
2019-02-19T20:07:11.937Z,21.83
2019-02-19T20:10:17.152Z,27.50
2019-02-19T20:13:22.330Z,30.57
2019-02-19T20:16:27.526Z,29.73
2019-02-19T20:19:32.709Z,31.50
2019-02-19T20:22:37.847Z,19.60
2019-02-19T20:25:43.114Z,21.83
2019-02-19T20:28:48.430Z,19.77
2019-02-19T20:31:53.724Z,18.37
2019-02-19T20:34:58.936Z,17.83
2019-02-19T20:38:04.210Z,23.33
2019-02-19T20:41:09.561Z,22.53
2019-02-19T20:44:14.815Z,30.97
2019-02-19T20:47:20.042Z,40.63
2019-02-19T20:50:25.211Z,35.83
2019-02-19T20:53:30.429Z,33.97
2019-02-19T20:56:35.671Z,42.17
2019-02-19T20:59:40.958Z,38.50
2019-02-19T21:02:46.247Z,37.00
2019-02-19T21:05:51.546Z,43.90
2019-02-19T21:08:56.995Z,67.83
2019-02-19T21:12:02.245Z,62.93
2019-02-19T21:15:07.606Z,61.73
2019-02-19T21:18:13.697Z,23.67
2019-02-19T21:21:19.100Z,21.33
2019-02-19T21:24:24.470Z,23.57
2019-02-19T21:27:29.889Z,19.03
2019-02-19T21:30:35.342Z,17.93
2019-02-19T21:33:40.566Z,15.73
2019-02-19T21:36:45.818Z,15.90
2019-02-19T21:39:51.100Z,16.23
2019-02-19T21:42:56.339Z,16.27
2019-02-19T21:46:02.793Z,17.17
2019-02-19T21:49:08.097Z,24.10
2019-02-19T21:52:13.375Z,21.80
2019-02-19T21:55:18.753Z,17.73
2019-02-19T21:58:24.071Z,27.83
2019-02-19T22:01:29.566Z,27.17
2019-02-19T22:04:34.894Z,26.03
2019-02-19T22:07:40.227Z,30.50
2019-02-19T22:10:45.903Z,42.83
2019-02-19T22:13:51.296Z,51.13
2019-02-19T22:16:56.549Z,52.60
2019-02-19T22:20:03.692Z,53.73
2019-02-19T22:23:10.737Z,59.37
2019-02-19T22:26:17.113Z,45.47
2019-02-19T22:29:22.486Z,46.70
2019-02-19T22:32:27.705Z,41.13
2019-02-19T22:35:32.955Z,39.70
2019-02-19T22:38:38.342Z,41.30
2019-02-19T22:41:43.504Z,37.90
2019-02-19T22:44:51.466Z,29.83
2019-02-19T22:47:56.664Z,29.10
2019-02-19T22:51:01.845Z,27.73
2019-02-19T22:54:11.116Z,23.83
2019-02-19T22:57:17.216Z,23.10
2019-02-19T23:00:45.815Z,32.40
2019-02-19T23:03:52.667Z,59.50
2019-02-19T23:06:57.825Z,50.40
2019-02-19T23:10:03.069Z,44.37
2019-02-19T23:13:08.562Z,39.97
2019-02-19T23:16:13.867Z,27.43
2019-02-19T23:19:19.068Z,32.03
2019-02-19T23:22:24.243Z,30.23
2019-02-19T23:25:29.433Z,34.07
2019-02-19T23:28:34.670Z,37.03
2019-02-19T23:31:41.054Z,35.73
2019-02-19T23:34:47.857Z,28.97
2019-02-19T23:37:53.077Z,28.30
2019-02-19T23:40:59.307Z,28.80
2019-02-19T23:44:04.498Z,27.03
2019-02-19T23:47:09.703Z,21.90
2019-02-19T23:50:14.840Z,22.13
2019-02-19T23:53:20.204Z,27.17
2019-02-19T23:56:25.297Z,23.67
2019-02-19T23:59:30.607Z,39.73
